| time (UTC) | temp C | wind direction | speed KPH | gust KPH | rain 1hr cm | rain 24hr cm | rain mn cm | humidity % | barometer mb |
| 20260508213515 | 23 | 315 | 8.0 | 16.1 | 0.00 | 0.00 | 0.00 | 21 | 1016.3 |
| 20260508212515 | 23 | 308 | 12.9 | 12.9 | 0.00 | 0.00 | 0.00 | 21 | 1016.4 |
| 20260508211445 | 23 | 298 | 16.1 | 24.1 | 0.00 | 0.00 | 0.00 | 21 | 1016.5 |
| 20260508210415 | 22 | 292 | 14.5 | 19.3 | 0.00 | 0.00 | 0.00 | 22 | 1016.5 |
| 20260508205345 | 23 | 305 | 14.5 | 19.3 | 0.00 | 0.00 | 0.00 | 21 | 1016.6 |
| 20260508204315 | 22 | 284 | 9.7 | 12.9 | 0.00 | 0.00 | 0.00 | 22 | 1016.7 |
| 20260508203315 | 22 | 299 | 8.0 | 11.3 | 0.00 | 0.00 | 0.00 | 22 | 1016.8 |
| 20260508202315 | 22 | 294 | 12.9 | 19.3 | 0.00 | 0.00 | 0.00 | 22 | 1016.8 |
| 20260508201315 | 22 | 281 | 12.9 | 16.1 | 0.00 | 0.00 | 0.00 | 24 | 1016.9 |
| 20260508200315 | 22 | 293 | 11.3 | 16.1 | 0.00 | 0.00 | 0.00 | 23 | 1016.8 |
| 20260508195245 | 22 | 286 | 12.9 | 19.3 | 0.00 | 0.00 | 0.00 | 24 | 1016.9 |
| 20260508194215 | 22 | 26 | 1.6 | 8.0 | 0.00 | 0.00 | 0.00 | 25 | 1016.8 |
| 20260508193215 | 21 | 312 | 0.0 | 4.8 | 0.00 | 0.00 | 0.00 | 26 | 1016.9 |
| 20260508192145 | 21 | 270 | 4.8 | 12.9 | 0.00 | 0.00 | 0.00 | 27 | 1017.1 |
| 20260508191145 | 21 | 312 | 8.0 | 8.0 | 0.00 | 0.00 | 0.00 | 27 | 1017.1 |
| 20260508190145 | 21 | 311 | 9.7 | 20.9 | 0.00 | 0.00 | 0.00 | 28 | 1017.2 |
| 20260508185115 | 21 | 298 | 8.0 | 4.8 | 0.00 | 0.00 | 0.00 | 27 | 1017.3 |
| 20260508184045 | 21 | 283 | 1.6 | 8.0 | 0.00 | 0.00 | 0.00 | 32 | 1017.4 |
| 20260508183015 | 21 | 298 | 8.0 | 11.3 | 0.00 | 0.00 | 0.00 | 31 | 1017.5 |
| 20260508181945 | 21 | 283 | 9.7 | 11.3 | 0.00 | 0.00 | 0.00 | 31 | 1017.5 |
| 20260508180945 | 20 | 298 | 9.7 | 16.1 | 0.00 | 0.00 | 0.00 | 31 | 1017.5 |
| 20260508175915 | 21 | 296 | 11.3 | 12.9 | 0.00 | 0.00 | 0.00 | 31 | 1017.6 |
| 20260508174845 | 20 | 203 | 1.6 | 1.6 | 0.00 | 0.00 | 0.00 | 31 | 1017.6 |
| 20260508173845 | 20 | 308 | 8.0 | 8.0 | 0.00 | 0.00 | 0.00 | 32 | 1017.7 |
| 20260508172815 | 21 | 301 | 1.6 | 4.8 | 0.00 | 0.00 | 0.00 | 32 | 1017.6 |
| 20260508171745 | 20 | 249 | 3.2 | 4.8 | 0.00 | 0.00 | 0.00 | 31 | 1017.6 |
| 20260508170715 | 20 | 297 | 4.8 | 4.8 | 0.00 | 0.00 | 0.00 | 31 | 1017.6 |
| 20260508165715 | 20 | 257 | 4.8 | 8.0 | 0.00 | 0.00 | 0.00 | 35 | 1017.6 |
| 20260508164645 | 20 | 172 | 1.6 | 4.8 | 0.00 | 0.00 | 0.00 | 35 | 1017.5 |
| 20260508163645 | 20 | 169 | 0.0 | 0.0 | 0.00 | 0.00 | 0.00 | 37 | 1017.5 |
| 20260508162615 | 19 | 265 | 1.6 | 4.8 | 0.00 | 0.00 | 0.00 | 37 | 1017.5 |
| 20260508161545 | 18 | 276 | 3.2 | 4.8 | 0.00 | 0.00 | 0.00 | 37 | 1017.4 |
| 20260508160545 | 18 | 242 | 1.6 | 3.2 | 0.00 | 0.00 | 0.00 | 39 | 1017.5 |
| 20260508155545 | 17 | 292 | 0.0 | 1.6 | 0.00 | 0.00 | 0.00 | 40 | 1017.5 |
| 20260508154515 | 17 | 290 | 4.8 | 4.8 | 0.00 | 0.00 | 0.00 | 56 | 1017.4 |
| 20260508154115 | 16 | 279 | 3.2 | 4.8 | 0.00 | 0.00 | 0.00 | 59 | 1017.4 |
| 20260508153515 | 16 | 279 | 3.2 | 4.8 | 0.00 | 0.00 | 0.00 | 59 | 1017.4 |
| 20260508152445 | 16 | 287 | 4.8 | 8.0 | 0.00 | 0.00 | 0.00 | 60 | 1017.4 |
| 20260508151445 | 17 | 296 | 8.0 | 9.7 | 0.00 | 0.00 | 0.00 | 55 | 1017.2 |
| 20260508150444 | 17 | 299 | 3.2 | 4.8 | 0.00 | 0.00 | 0.00 | 45 | 1017.1 |
| 20260508145444 | 17 | 302 | 0.0 | 1.6 | 0.00 | 0.00 | 0.00 | 42 | 1017.0 |
| 20260508144443 | 17 | 291 | 0.0 | 0.0 | 0.00 | 0.00 | 0.00 | 41 | 1016.9 |
| 20260508143442 | 17 | 216 | 0.0 | 0.0 | 0.00 | 0.00 | 0.00 | 39 | 1016.9 |
| 20260508142442 | 17 | 214 | 0.0 | 0.0 | 0.00 | 0.00 | 0.00 | 40 | 1016.8 |
| 20260508141441 | 16 | 215 | 1.6 | 1.6 | 0.00 | 0.00 | 0.00 | 42 | 1016.8 |
| 20260508140441 | 15 | 89 | 0.0 | 0.0 | 0.00 | 0.00 | 0.00 | 43 | 1016.8 |
| 20260508135440 | 14 | 89 | 0.0 | 0.0 | 0.00 | 0.00 | 0.00 | 49 | 1016.7 |
| 20260508134439 | 13 | 89 | 0.0 | 0.0 | 0.00 | 0.00 | 0.00 | 48 | 1016.7 |
| 20260508133439 | 13 | 89 | 0.0 | 1.6 | 0.00 | 0.00 | 0.00 | 49 | 1016.6 |
| 20260508132438 | 12 | 89 | 0.0 | 0.0 | 0.00 | 0.00 | 0.00 | 54 | 1016.6 |
| 20260508131438 | 11 | 89 | 0.0 | 0.0 | 0.00 | 0.00 | 0.00 | 55 | 1016.4 |
| 20260508130437 | 11 | 89 | 0.0 | 0.0 | 0.00 | 0.00 | 0.00 | 55 | 1016.4 |
| 20260508125436 | 11 | 89 | 0.0 | 0.0 | 0.00 | 0.00 | 0.00 | 55 | 1016.3 |
| 20260508124435 | 11 | 89 | 0.0 | 0.0 | 0.00 | 0.00 | 0.00 | 54 | 1016.1 |
| 20260508123435 | 11 | 92 | 0.0 | 1.6 | 0.00 | 0.00 | 0.00 | 53 | 1016.0 |
| 20260508122434 | 11 | 93 | 0.0 | 1.6 | 0.00 | 0.00 | 0.00 | 53 | 1015.9 |
| 20260508121434 | 12 | 93 | 0.0 | 0.0 | 0.00 | 0.00 | 0.00 | 52 | 1015.8 |
| 20260508120433 | 11 | 93 | 0.0 | 0.0 | 0.00 | 0.00 | 0.00 | 53 | 1015.7 |
| 20260508115432 | 11 | 76 | 1.6 | 3.2 | 0.00 | 0.00 | 0.00 | 55 | 1015.6 |
| 20260508114432 | 11 | 37 | 0.0 | 1.6 | 0.00 | 0.00 | 0.00 | 57 | 1015.5 |
| 20260508113431 | 11 | 270 | 0.0 | 0.0 | 0.00 | 0.00 | 0.00 | 55 | 1015.5 |
| 20260508112430 | 12 | 105 | 0.0 | 0.0 | 0.00 | 0.00 | 0.00 | 53 | 1015.5 |
| 20260508111430 | 12 | 105 | 0.0 | 0.0 | 0.00 | 0.00 | 0.00 | 50 | 1015.4 |
| 20260508110429 | 12 | 82 | 0.0 | 1.6 | 0.00 | 0.00 | 0.00 | 51 | 1015.4 |
| 20260508105429 | 12 | 162 | 0.0 | 1.6 | 0.00 | 0.00 | 0.00 | 50 | 1015.4 |
| 20260508104428 | 12 | 117 | 1.6 | 3.2 | 0.00 | 0.00 | 0.00 | 51 | 1015.5 |
| 20260508103427 | 12 | 124 | 3.2 | 4.8 | 0.00 | 0.00 | 0.00 | 56 | 1015.5 |
| 20260508102427 | 12 | 131 | 3.2 | 4.8 | 0.00 | 0.00 | 0.00 | 57 | 1015.4 |
| 20260508101426 | 12 | 102 | 1.6 | 3.2 | 0.00 | 0.00 | 0.00 | 60 | 1015.5 |
| 20260508100425 | 11 | 112 | 3.2 | 4.8 | 0.00 | 0.00 | 0.00 | 64 | 1015.5 |
| 20260508095425 | 11 | 37 | 0.0 | 0.0 | 0.00 | 0.00 | 0.00 | 63 | 1015.4 |
| 20260508094424 | 11 | 19 | 0.0 | 0.0 | 0.00 | 0.00 | 0.00 | 63 | 1015.4 |
| 20260508093423 | 12 | 46 | 0.0 | 0.0 | 0.00 | 0.00 | 0.00 | 61 | 1015.3 |
| 20260508092423 | 12 | 271 | 0.0 | 1.6 | 0.00 | 0.00 | 0.00 | 60 | 1015.1 |
| 20260508091422 | 12 | 271 | 0.0 | 0.0 | 0.00 | 0.00 | 0.00 | 59 | 1015.1 |
| 20260508090421 | 12 | 117 | 0.0 | 0.0 | 0.00 | 0.00 | 0.00 | 58 | 1014.9 |
| 20260508085421 | 12 | 118 | 0.0 | 0.0 | 0.00 | 0.00 | 0.00 | 58 | 1014.9 |
| 20260508084420 | 12 | 118 | 0.0 | 0.0 | 0.00 | 0.00 | 0.00 | 57 | 1014.9 |
| 20260508083420 | 13 | 117 | 0.0 | 0.0 | 0.00 | 0.00 | 0.00 | 56 | 1015.0 |
| 20260508082419 | 13 | 117 | 0.0 | 0.0 | 0.00 | 0.00 | 0.00 | 55 | 1015.0 |
| 20260508081418 | 13 | 134 | 0.0 | 1.6 | 0.00 | 0.00 | 0.00 | 57 | 1015.0 |
| 20260508080418 | 13 | 115 | 0.0 | 3.2 | 0.00 | 0.00 | 0.00 | 55 | 1015.1 |
| 20260508075417 | 13 | 127 | 3.2 | 3.2 | 0.00 | 0.00 | 0.00 | 55 | 1015.1 |
| 20260508074416 | 13 | 129 | 0.0 | 1.6 | 0.00 | 0.00 | 0.00 | 58 | 1015.2 |
| 20260508073416 | 14 | 129 | 0.0 | 0.0 | 0.00 | 0.00 | 0.00 | 56 | 1015.2 |
| 20260508072415 | 13 | 150 | 0.0 | 1.6 | 0.00 | 0.00 | 0.00 | 58 | 1015.1 |
| 20260508071415 | 13 | 61 | 1.6 | 1.6 | 0.00 | 0.00 | 0.00 | 56 | 1015.0 |
| 20260508070414 | 14 | 316 | 0.0 | 0.0 | 0.00 | 0.00 | 0.00 | 55 | 1014.9 |
| 20260508065413 | 15 | 247 | 0.0 | 0.0 | 0.00 | 0.00 | 0.00 | 49 | 1014.9 |
| 20260508064413 | 15 | 266 | 0.0 | 0.0 | 0.00 | 0.00 | 0.00 | 47 | 1014.8 |
| 20260508063412 | 15 | 63 | 0.0 | 0.0 | 0.00 | 0.00 | 0.00 | 46 | 1014.7 |
| 20260508062411 | 15 | 63 | 0.0 | 0.0 | 0.00 | 0.00 | 0.00 | 44 | 1014.7 |
| 20260508061411 | 15 | 57 | 1.6 | 3.2 | 0.00 | 0.00 | 0.00 | 43 | 1014.7 |
| 20260508060410 | 16 | 104 | 1.6 | 1.6 | 0.00 | 0.00 | 0.00 | 39 | 1014.7 |
| 20260508055410 | 16 | 125 | 3.2 | 4.8 | 0.00 | 0.00 | 0.00 | 38 | 1014.6 |
| 20260508054409 | 17 | 144 | 3.2 | 4.8 | 0.00 | 0.00 | 0.00 | 37 | 1014.6 |
| 20260508053408 | 17 | 159 | 1.6 | 3.2 | 0.00 | 0.00 | 0.00 | 36 | 1014.5 |
| 20260508052407 | 17 | 203 | 3.2 | 4.8 | 0.00 | 0.00 | 0.00 | 36 | 1014.5 |
| 20260508051407 | 18 | 119 | 1.6 | 3.2 | 0.00 | 0.00 | 0.00 | 34 | 1014.4 |
| 20260508050406 | 18 | 138 | 1.6 | 3.2 | 0.00 | 0.00 | 0.00 | 35 | 1014.3 |
| 20260508045406 | 18 | 121 | 1.6 | 1.6 | 0.00 | 0.00 | 0.00 | 35 | 1014.3 |
| 20260508044405 | 18 | 144 | 3.2 | 4.8 | 0.00 | 0.00 | 0.00 | 36 | 1014.3 |
| 20260508043404 | 18 | 140 | 3.2 | 3.2 | 0.00 | 0.00 | 0.00 | 34 | 1014.3 |
| 20260508042404 | 18 | 120 | 3.2 | 3.2 | 0.00 | 0.00 | 0.00 | 34 | 1014.3 |
| 20260508041403 | 18 | 134 | 1.6 | 1.6 | 0.00 | 0.00 | 0.00 | 34 | 1014.3 |
| 20260508040402 | 18 | 118 | 3.2 | 4.8 | 0.00 | 0.00 | 0.00 | 34 | 1014.2 |
| 20260508035402 | 19 | 117 | 3.2 | 4.8 | 0.00 | 0.00 | 0.00 | 33 | 1014.1 |
| 20260508034401 | 20 | 106 | 4.8 | 4.8 | 0.00 | 0.00 | 0.00 | 31 | 1014.1 |
| 20260508033401 | 19 | 98 | 3.2 | 4.8 | 0.00 | 0.00 | 0.00 | 31 | 1014.0 |
| 20260508032400 | 19 | 85 | 3.2 | 4.8 | 0.00 | 0.00 | 0.00 | 31 | 1014.0 |
| 20260508031359 | 20 | 91 | 3.2 | 4.8 | 0.00 | 0.00 | 0.00 | 31 | 1013.9 |
| 20260508030358 | 20 | 75 | 4.8 | 8.0 | 0.00 | 0.00 | 0.00 | 32 | 1013.8 |
| 20260508025358 | 20 | 81 | 1.6 | 4.8 | 0.00 | 0.00 | 0.00 | 31 | 1013.7 |
| 20260508024357 | 21 | 50 | 1.6 | 1.6 | 0.00 | 0.00 | 0.00 | 31 | 1013.7 |
| 20260508023357 | 22 | 356 | 0.0 | 1.6 | 0.00 | 0.00 | 0.00 | 27 | 1013.6 |
| 20260508022356 | 23 | 345 | 0.0 | 1.6 | 0.00 | 0.00 | 0.00 | 25 | 1013.6 |
| 20260508021356 | 23 | 345 | 0.0 | 0.0 | 0.00 | 0.00 | 0.00 | 24 | 1013.7 |
| 20260508020355 | 23 | 345 | 1.6 | 1.6 | 0.00 | 0.00 | 0.00 | 24 | 1013.6 |
| 20260508015354 | 23 | 315 | 1.6 | 1.6 | 0.00 | 0.00 | 0.00 | 24 | 1013.6 |
| 20260508014354 | 23 | 301 | 1.6 | 3.2 | 0.00 | 0.00 | 0.00 | 23 | 1013.6 |
| 20260508013353 | 24 | 300 | 1.6 | 1.6 | 0.00 | 0.00 | 0.00 | 23 | 1013.6 |
| 20260508012352 | 24 | 302 | 1.6 | 1.6 | 0.00 | 0.00 | 0.00 | 23 | 1013.7 |
| 20260508011352 | 24 | 314 | 3.2 | 4.8 | 0.00 | 0.00 | 0.00 | 23 | 1013.7 |
| 20260508010351 | 24 | 269 | 8.0 | 9.7 | 0.00 | 0.00 | 0.00 | 24 | 1013.8 |
| 20260508005351 | 24 | 299 | 3.2 | 4.8 | 0.00 | 0.00 | 0.00 | 23 | 1013.8 |
| 20260508004350 | 24 | 302 | 3.2 | 8.0 | 0.00 | 0.00 | 0.00 | 23 | 1013.7 |
| 20260508003349 | 23 | 331 | 3.2 | 4.8 | 0.00 | 0.00 | 0.00 | 24 | 1013.6 |
| 20260508002349 | 23 | 332 | 3.2 | 4.8 | 0.00 | 0.00 | 0.00 | 23 | 1013.9 |
| 20260508001348 | 24 | 359 | 3.2 | 4.8 | 0.00 | 0.00 | 0.00 | 24 | 1014.0 |
| 20260508000349 | 23 | 11 | 4.8 | 9.7 | 0.00 | 0.00 | 0.00 | 24 | 1014.1 |
| 20260507235347 | 23 | 61 | 1.6 | 3.2 | 0.00 | 0.00 | 0.00 | 25 | 1014.1 |
| 20260507234346 | 23 | 265 | 0.0 | 1.6 | 0.00 | 0.00 | 0.00 | 25 | 1014.2 |
| 20260507233346 | 23 | 346 | 1.6 | 4.8 | 0.00 | 0.00 | 0.00 | 25 | 1014.3 |
| 20260507232345 | 23 | 29 | 4.8 | 9.7 | 0.00 | 0.00 | 0.00 | 25 | 1014.5 |
| 20260507231345 | 23 | 359 | 3.2 | 9.7 | 0.00 | 0.00 | 0.00 | 25 | 1014.5 |
| 20260507230344 | 23 | 0 | 3.2 | 8.0 | 0.00 | 0.00 | 0.00 | 25 | 1014.7 |
| 20260507225344 | 23 | 349 | 4.8 | 4.8 | 0.00 | 0.00 | 0.00 | 25 | 1014.8 |
| 20260507224344 | 23 | 317 | 4.8 | 12.9 | 0.00 | 0.00 | 0.00 | 26 | 1015.0 |
| 20260507223344 | 22 | 330 | 4.8 | 8.0 | 0.00 | 0.00 | 0.00 | 26 | 1015.2 |
| 20260507222314 | 22 | 285 | 8.0 | 9.7 | 0.00 | 0.00 | 0.00 | 28 | 1015.4 |
| 20260507221244 | 22 | 294 | 8.0 | 9.7 | 0.00 | 0.00 | 0.00 | 25 | 1015.6 |
| 20260507220214 | 22 | 271 | 11.3 | 12.9 | 0.00 | 0.00 | 0.00 | 25 | 1015.7 |
| 20260507215214 | 22 | 293 | 14.5 | 16.1 | 0.00 | 0.00 | 0.00 | 25 | 1015.7 |
| 20260507214214 | 22 | 276 | 14.5 | 16.1 | 0.00 | 0.00 | 0.00 | 26 | 1015.8 |